createdAt,value
2018-07-04T00:00:03.627Z,24.90
2018-07-04T00:02:43.215Z,9.50
2018-07-04T00:05:22.826Z,9.93
2018-07-04T00:08:02.473Z,12.77
2018-07-04T00:10:42.055Z,7.77
2018-07-04T00:13:21.713Z,10.20
2018-07-04T00:16:01.348Z,19.53
2018-07-04T00:18:40.863Z,8.20
2018-07-04T00:21:20.463Z,9.30
2018-07-04T00:24:00.015Z,12.73
2018-07-04T00:26:39.616Z,7.97
2018-07-04T00:29:19.347Z,7.30
2018-07-04T00:31:59.020Z,9.07
2018-07-04T00:34:38.659Z,8.80
2018-07-04T00:37:18.231Z,11.80
2018-07-04T00:39:57.907Z,9.40
2018-07-04T00:42:37.538Z,16.33
2018-07-04T00:45:17.194Z,8.33
2018-07-04T00:47:56.887Z,9.43
2018-07-04T00:50:36.463Z,5.53
2018-07-04T00:53:16.064Z,8.30
2018-07-04T00:55:55.823Z,13.47
2018-07-04T00:58:35.575Z,8.60
2018-07-04T01:01:15.250Z,15.30
2018-07-04T01:03:54.828Z,10.83
2018-07-04T01:06:34.465Z,9.40
2018-07-04T01:09:14.082Z,13.90
2018-07-04T01:11:53.843Z,10.70
2018-07-04T01:14:33.479Z,6.90
2018-07-04T01:17:13.160Z,7.20
2018-07-04T01:19:52.660Z,9.57
2018-07-04T01:22:32.418Z,10.07
2018-07-04T01:25:12.037Z,9.13
2018-07-04T01:27:51.695Z,13.80
2018-07-04T01:30:31.356Z,14.40
2018-07-04T01:33:10.908Z,7.37
2018-07-04T01:35:50.620Z,11.17
2018-07-04T01:38:30.231Z,11.53
2018-07-04T01:41:09.795Z,10.70
2018-07-04T01:43:49.792Z,12.30
2018-07-04T01:46:29.464Z,13.27
2018-07-04T01:49:09.103Z,14.30
2018-07-04T01:51:48.678Z,19.00
2018-07-04T01:54:28.220Z,33.07
2018-07-04T01:57:07.811Z,16.03
2018-07-04T01:59:47.447Z,12.03
2018-07-04T02:02:27.106Z,20.27
2018-07-04T02:05:06.743Z,19.60
2018-07-04T02:07:46.291Z,20.60
2018-07-04T02:10:26.046Z,13.27
2018-07-04T02:13:05.483Z,12.83
2018-07-04T02:15:45.148Z,10.83
2018-07-04T02:18:25.160Z,19.40
2018-07-04T02:21:04.623Z,15.80
2018-07-04T02:23:44.275Z,17.33
2018-07-04T02:26:23.918Z,15.33
2018-07-04T02:29:03.522Z,22.97
2018-07-04T02:31:43.183Z,13.80
2018-07-04T02:34:26.722Z,12.70
2018-07-04T02:37:07.924Z,13.50
2018-07-04T02:39:47.739Z,18.13
2018-07-04T02:42:27.324Z,19.37
2018-07-04T02:45:07.081Z,16.60
2018-07-04T02:47:46.602Z,15.00
2018-07-04T02:50:26.203Z,17.60
2018-07-04T02:53:05.847Z,15.90
2018-07-04T02:55:45.503Z,20.47
2018-07-04T02:58:25.156Z,12.67
2018-07-04T03:01:04.744Z,8.03
2018-07-04T03:03:44.548Z,10.30
2018-07-04T03:06:24.004Z,16.23
2018-07-04T03:09:04.436Z,13.40
2018-07-04T03:11:44.010Z,6.80
2018-07-04T03:14:23.680Z,8.77
2018-07-04T03:17:03.257Z,13.10
2018-07-04T03:19:42.790Z,9.97
2018-07-04T03:22:22.280Z,7.00
2018-07-04T03:25:01.813Z,6.70
2018-07-04T03:27:41.267Z,8.63
2018-07-04T03:30:21.146Z,30.77
2018-07-04T03:33:00.607Z,17.73
2018-07-04T03:35:40.163Z,26.97
2018-07-04T03:38:21.620Z,24.17
2018-07-04T03:41:02.742Z,19.83
2018-07-04T03:43:42.488Z,13.13
2018-07-04T03:46:22.111Z,9.47
2018-07-04T03:49:01.631Z,11.57
2018-07-04T03:51:41.307Z,10.87
2018-07-04T03:54:20.984Z,12.80
2018-07-04T03:57:00.638Z,8.97
2018-07-04T03:59:40.276Z,10.33
2018-07-04T04:02:19.886Z,8.00
2018-07-04T04:04:59.413Z,6.43
2018-07-04T04:07:39.047Z,10.60
2018-07-04T04:10:18.767Z,13.03
2018-07-04T04:12:58.446Z,6.83
2018-07-04T04:15:38.394Z,11.00
2018-07-04T04:18:18.023Z,9.20
2018-07-04T04:20:57.599Z,9.43
2018-07-04T04:23:37.192Z,7.43
2018-07-04T04:26:16.794Z,8.47
2018-07-04T04:28:56.471Z,10.70
2018-07-04T04:31:36.080Z,11.93
2018-07-04T04:34:15.696Z,7.43
2018-07-04T04:36:55.225Z,10.60
2018-07-04T04:39:34.932Z,11.10
2018-07-04T04:42:14.413Z,11.13
2018-07-04T04:44:54.052Z,7.60
2018-07-04T04:47:33.601Z,13.57
2018-07-04T04:50:13.261Z,8.33
2018-07-04T04:52:52.801Z,7.37
2018-07-04T04:55:32.386Z,13.70
2018-07-04T04:58:12.043Z,16.70
2018-07-04T05:00:51.695Z,10.20
2018-07-04T05:03:31.294Z,8.97
2018-07-04T05:06:10.813Z,19.13
2018-07-04T05:08:50.454Z,11.00
2018-07-04T05:11:30.115Z,10.80
2018-07-04T05:14:10.352Z,10.00
2018-07-04T05:16:49.833Z,26.30
2018-07-04T05:19:29.472Z,20.77
2018-07-04T05:22:09.129Z,9.73
2018-07-04T05:24:48.607Z,10.10
2018-07-04T05:27:28.163Z,9.63
2018-07-04T05:30:07.736Z,10.60
2018-07-04T05:32:47.307Z,11.00
2018-07-04T05:35:26.853Z,15.60
2018-07-04T05:38:06.416Z,15.90
2018-07-04T05:40:46.044Z,12.00
2018-07-04T05:43:25.722Z,14.23
2018-07-04T05:46:05.361Z,18.50
2018-07-04T05:48:44.959Z,16.40
2018-07-04T05:51:24.575Z,10.80
2018-07-04T05:54:04.191Z,10.10
2018-07-04T05:56:43.819Z,17.53
2018-07-04T05:59:23.533Z,11.70
2018-07-04T06:02:02.985Z,15.10
2018-07-04T06:04:42.507Z,18.23
2018-07-04T06:07:22.070Z,15.43
2018-07-04T06:10:01.705Z,16.07
2018-07-04T06:12:41.375Z,12.57
2018-07-04T06:15:21.031Z,15.60
2018-07-04T06:18:00.623Z,15.80
2018-07-04T06:20:40.550Z,15.00
2018-07-04T06:23:20.163Z,17.93
2018-07-04T06:25:59.680Z,15.10
2018-07-04T06:28:39.318Z,26.50
2018-07-04T06:31:19.017Z,18.07
2018-07-04T06:33:58.578Z,13.37
2018-07-04T06:36:38.217Z,12.10
2018-07-04T06:39:05.994Z,12.90
2018-07-04T06:41:33.188Z,15.30
2018-07-04T06:44:00.436Z,13.80
2018-07-04T06:46:27.674Z,12.53
2018-07-04T06:48:54.957Z,16.50
2018-07-04T06:51:22.187Z,19.83
2018-07-04T06:53:49.434Z,18.80
2018-07-04T06:56:16.664Z,17.13
2018-07-04T06:58:43.897Z,18.83
2018-07-04T07:01:11.134Z,13.87
2018-07-04T07:03:50.798Z,24.63
2018-07-04T07:06:30.401Z,11.93
2018-07-04T07:09:10.065Z,17.67
2018-07-04T07:11:49.687Z,14.00
2018-07-04T07:14:29.387Z,14.43
2018-07-04T07:17:08.971Z,13.17
2018-07-04T07:19:48.623Z,10.00
2018-07-04T07:22:28.291Z,11.43
2018-07-04T07:25:07.911Z,9.93
2018-07-04T07:27:47.536Z,10.23
2018-07-04T07:30:27.140Z,12.93
2018-07-04T07:33:06.769Z,9.43
2018-07-04T07:35:46.492Z,7.90
2018-07-04T07:38:26.072Z,8.17
2018-07-04T07:41:05.725Z,15.23
2018-07-04T07:47:27.345Z,14.33
2018-07-04T07:50:06.982Z,9.77
2018-07-04T07:52:46.630Z,8.40
2018-07-04T07:55:26.275Z,12.83
2018-07-04T07:58:05.895Z,11.27
2018-07-04T08:00:45.556Z,7.90
2018-07-04T08:03:25.176Z,11.00
2018-07-04T08:06:04.808Z,9.40
2018-07-04T08:08:44.426Z,7.37
2018-07-04T08:11:23.943Z,7.27
2018-07-04T08:14:03.567Z,8.93
2018-07-04T08:16:43.263Z,12.10
2018-07-04T08:19:22.969Z,12.23
2018-07-04T08:22:02.510Z,9.00
2018-07-04T08:24:42.127Z,13.07
2018-07-04T08:27:21.803Z,9.23
2018-07-04T08:30:01.415Z,9.07
2018-07-04T08:32:41.045Z,7.30
2018-07-04T08:35:20.564Z,7.27
2018-07-04T08:38:00.190Z,6.83
2018-07-04T08:40:39.875Z,8.00
2018-07-04T08:43:19.498Z,8.07
2018-07-04T08:45:59.125Z,7.80
2018-07-04T08:48:38.777Z,8.37
2018-07-04T08:51:18.265Z,8.70
2018-07-04T08:53:57.967Z,8.47
2018-07-04T08:56:37.540Z,9.50
2018-07-04T08:59:17.188Z,6.67
2018-07-04T09:01:56.680Z,7.10
2018-07-04T09:04:36.263Z,12.57
2018-07-04T09:07:16.044Z,7.90
2018-07-04T09:09:55.535Z,6.73
2018-07-04T09:12:35.187Z,10.33
2018-07-04T09:15:14.823Z,6.70
2018-07-04T09:17:54.407Z,6.23
2018-07-04T09:20:35.076Z,6.87
2018-07-04T09:23:14.707Z,8.20
2018-07-04T09:25:54.223Z,8.07
2018-07-04T09:28:33.865Z,7.20
2018-07-04T09:31:13.710Z,10.10
2018-07-04T09:33:53.322Z,9.00
2018-07-04T09:36:33.051Z,9.10
2018-07-04T09:39:12.659Z,7.97
2018-07-04T09:41:52.499Z,6.13
2018-07-04T09:44:31.876Z,8.13
2018-07-04T09:47:11.446Z,5.37
2018-07-04T09:49:51.120Z,11.37
2018-07-04T09:52:30.600Z,6.03
2018-07-04T09:55:10.558Z,6.80
2018-07-04T09:57:50.276Z,10.00
2018-07-04T10:00:30.709Z,7.70
2018-07-04T10:03:11.408Z,4.80
2018-07-04T10:05:51.129Z,5.43
2018-07-04T10:08:30.702Z,7.03
2018-07-04T10:11:10.766Z,5.43
2018-07-04T10:13:50.279Z,14.90
2018-07-04T10:16:29.952Z,8.30
2018-07-04T10:19:09.543Z,9.23
2018-07-04T10:23:18.236Z,6.23
2018-07-04T10:25:57.922Z,4.37
2018-07-04T10:28:37.904Z,4.23
2018-07-04T10:31:17.512Z,5.17
2018-07-04T10:33:56.978Z,5.73
2018-07-04T10:36:36.513Z,2.97
2018-07-04T10:39:16.042Z,3.10
2018-07-04T10:41:55.599Z,4.00
2018-07-04T10:44:35.725Z,6.30
2018-07-04T10:47:15.332Z,4.40
2018-07-04T10:49:54.841Z,4.30
2018-07-04T10:52:34.340Z,6.93
2018-07-04T10:55:13.946Z,5.33
2018-07-04T10:57:53.572Z,3.33
2018-07-04T11:00:33.023Z,8.90
2018-07-04T11:03:12.595Z,3.23
2018-07-04T11:05:52.534Z,2.50
2018-07-04T11:08:32.289Z,2.23
2018-07-04T11:11:11.906Z,6.30
2018-07-04T11:13:51.731Z,2.07
2018-07-04T11:16:31.272Z,2.33
2018-07-04T11:19:10.893Z,3.43
2018-07-04T11:21:50.630Z,2.53
2018-07-04T11:24:30.265Z,2.40
2018-07-04T11:27:10.199Z,2.23
2018-07-04T11:29:49.899Z,2.37
2018-07-04T11:32:29.785Z,2.90
2018-07-04T11:35:09.771Z,2.67
2018-07-04T11:37:49.188Z,2.30
2018-07-04T11:40:28.831Z,2.57
2018-07-04T11:43:08.372Z,2.73
2018-07-04T11:45:48.019Z,2.30
2018-07-04T11:48:15.260Z,2.20
2018-07-04T11:50:42.475Z,1.83
2018-07-04T11:53:09.748Z,5.60
2018-07-04T11:55:36.943Z,3.03
2018-07-04T11:58:04.190Z,2.30
2018-07-04T12:00:31.422Z,2.27
2018-07-04T12:02:58.666Z,2.23
2018-07-04T12:05:38.281Z,1.87
2018-07-04T12:08:05.539Z,1.70
2018-07-04T12:10:32.765Z,2.07
2018-07-04T12:12:59.976Z,3.83
2018-07-04T12:15:27.220Z,5.13
2018-07-04T12:17:54.428Z,2.20
2018-07-04T12:20:21.706Z,2.43
2018-07-04T12:22:48.906Z,2.03
2018-07-04T12:25:16.139Z,1.90
2018-07-04T12:27:43.382Z,1.80
2018-07-04T12:30:10.590Z,2.97
2018-07-04T12:32:37.814Z,2.03
2018-07-04T12:35:05.037Z,2.67
2018-07-04T12:37:32.352Z,2.80
2018-07-04T12:39:59.535Z,2.00
2018-07-04T12:42:26.893Z,2.23
2018-07-04T12:44:54.144Z,2.90
2018-07-04T12:47:21.411Z,6.10
2018-07-04T12:49:48.632Z,1.60
2018-07-04T12:52:15.863Z,1.87
2018-07-04T12:54:48.417Z,1.87
2018-07-04T12:57:27.835Z,1.60
2018-07-04T13:00:07.453Z,1.80
2018-07-04T13:02:46.948Z,1.67
2018-07-04T13:05:26.621Z,1.60
2018-07-04T13:08:06.118Z,1.87
2018-07-04T13:10:45.787Z,1.57
2018-07-04T13:13:25.291Z,2.67
2018-07-04T13:16:05.060Z,3.93
2018-07-04T13:18:44.668Z,4.60
2018-07-04T13:21:24.255Z,1.80
2018-07-04T13:24:03.887Z,2.23
2018-07-04T13:26:43.424Z,2.17
2018-07-04T13:29:23.046Z,2.50
2018-07-04T13:32:02.726Z,1.80
2018-07-04T13:34:42.338Z,3.53
2018-07-04T13:37:21.994Z,1.70
2018-07-04T13:40:01.658Z,1.90
2018-07-04T13:42:41.145Z,3.27
2018-07-04T13:45:20.699Z,1.90
2018-07-04T13:48:00.335Z,2.40
2018-07-04T13:50:39.974Z,11.23
2018-07-04T13:53:19.656Z,2.60
2018-07-04T13:55:59.094Z,5.03
2018-07-04T13:58:38.687Z,2.00
2018-07-04T14:01:18.319Z,1.87
2018-07-04T14:03:58.000Z,2.07
2018-07-04T14:06:37.556Z,1.50
2018-07-04T14:09:17.691Z,4.17
2018-07-04T14:11:57.420Z,3.30
2018-07-04T14:14:36.935Z,1.60
2018-07-04T14:17:16.707Z,2.83
2018-07-04T14:19:56.388Z,3.40
2018-07-04T14:22:35.976Z,1.73
2018-07-04T14:25:15.546Z,1.80
2018-07-04T14:27:55.164Z,2.27
2018-07-04T14:30:34.807Z,1.97
2018-07-04T14:33:14.380Z,1.87
2018-07-04T14:35:53.995Z,2.20
2018-07-04T14:38:33.603Z,1.53
2018-07-04T14:41:13.155Z,2.23
2018-07-04T14:43:52.813Z,2.10
2018-07-04T14:46:32.369Z,2.07
2018-07-04T14:49:11.991Z,2.03
2018-07-04T14:51:51.694Z,2.10
2018-07-04T14:54:31.287Z,1.63
2018-07-04T14:57:11.232Z,1.70
2018-07-04T14:59:50.731Z,1.70
2018-07-04T15:02:30.687Z,2.57
2018-07-04T15:05:10.207Z,1.90
2018-07-04T15:07:49.916Z,2.30
2018-07-04T15:10:29.395Z,2.00
2018-07-04T15:13:09.103Z,2.10
2018-07-04T15:15:48.761Z,2.00
2018-07-04T15:18:31.066Z,2.97
2018-07-04T15:21:10.595Z,3.07
2018-07-04T15:23:50.287Z,1.80
2018-07-04T15:26:29.936Z,4.33
2018-07-04T15:29:09.573Z,8.23
2018-07-04T15:31:49.095Z,2.30
2018-07-04T15:34:28.498Z,1.33
2018-07-04T15:37:08.348Z,2.40
2018-07-04T15:39:47.925Z,1.73
2018-07-04T15:42:27.627Z,2.37
2018-07-04T15:45:07.285Z,2.47
2018-07-04T15:47:47.127Z,1.90
2018-07-04T15:50:26.647Z,4.80
2018-07-04T15:53:06.316Z,2.90
2018-07-04T15:55:45.862Z,2.03
2018-07-04T15:58:25.365Z,3.67
2018-07-04T16:01:05.061Z,3.10
2018-07-04T16:03:44.651Z,2.30
2018-07-04T16:06:24.321Z,2.07
2018-07-04T16:09:05.258Z,2.23
2018-07-04T16:11:44.840Z,1.93
2018-07-04T16:14:24.323Z,2.00
2018-07-04T16:17:04.024Z,3.70
2018-07-04T16:19:43.574Z,2.77
2018-07-04T16:22:23.155Z,2.57
2018-07-04T16:25:02.723Z,3.63
2018-07-04T16:27:42.379Z,2.80
2018-07-04T16:30:22.092Z,3.50
2018-07-04T16:33:02.112Z,4.27
2018-07-04T16:35:41.972Z,2.60
2018-07-04T16:38:21.556Z,5.40
2018-07-04T16:41:01.167Z,2.90
2018-07-04T16:43:40.733Z,3.40
2018-07-04T16:46:20.363Z,3.57
2018-07-04T16:48:59.970Z,8.83
2018-07-04T16:51:39.556Z,4.20
2018-07-04T16:54:19.179Z,3.23
2018-07-04T16:56:58.800Z,5.03
2018-07-04T16:59:38.171Z,3.47
2018-07-04T17:02:17.736Z,5.37
2018-07-04T17:04:57.491Z,3.40
2018-07-04T17:07:37.220Z,2.80
2018-07-04T17:10:16.743Z,3.53
2018-07-04T17:12:56.400Z,6.63
2018-07-04T17:15:35.952Z,4.93
2018-07-04T17:18:15.486Z,4.67
2018-07-04T17:20:55.113Z,8.53
2018-07-04T17:23:34.692Z,6.23
2018-07-04T17:26:14.906Z,4.30
2018-07-04T17:28:54.487Z,5.33
2018-07-04T17:31:34.267Z,12.47
2018-07-04T17:34:13.805Z,7.80
2018-07-04T17:36:53.409Z,4.80
2018-07-04T17:39:33.087Z,4.87
2018-07-04T17:42:12.728Z,7.47
2018-07-04T17:44:52.343Z,5.80
2018-07-04T17:47:31.884Z,11.33
2018-07-04T17:50:11.540Z,4.57
2018-07-04T17:52:51.203Z,5.00
2018-07-04T17:55:30.657Z,4.80
2018-07-04T17:58:10.204Z,4.53
2018-07-04T18:46:34.691Z,10.00
2018-07-04T18:49:14.339Z,6.87
2018-07-04T18:51:54.010Z,5.43
2018-07-04T18:54:33.641Z,7.43
2018-07-04T18:57:13.242Z,5.13
2018-07-04T18:59:52.919Z,5.23
2018-07-04T19:02:32.411Z,7.57
2018-07-04T19:05:12.022Z,6.60
2018-07-04T19:07:51.491Z,8.43
2018-07-04T19:10:31.194Z,10.20
2018-07-04T19:13:10.644Z,7.60
2018-07-04T19:15:50.404Z,8.07
2018-07-04T19:18:29.768Z,6.93
2018-07-04T19:21:09.343Z,9.40
2018-07-04T19:23:48.846Z,5.53
2018-07-04T19:26:28.495Z,8.73
2018-07-04T19:29:07.942Z,7.07
2018-07-04T19:31:47.650Z,5.80
2018-07-04T19:34:27.122Z,5.83
2018-07-04T19:37:07.347Z,6.50
2018-07-04T19:39:46.855Z,6.27
2018-07-04T19:42:26.688Z,11.00
2018-07-04T19:45:06.987Z,8.10
2018-07-04T19:47:46.430Z,9.43
2018-07-04T19:50:26.620Z,6.53
2018-07-04T19:53:06.122Z,8.93
2018-07-04T19:55:45.785Z,7.70
2018-07-04T19:58:25.449Z,8.13
2018-07-04T20:01:04.935Z,7.13
2018-07-04T20:03:44.434Z,8.07
2018-07-04T20:06:24.055Z,6.03
2018-07-04T20:09:03.976Z,5.85
2018-07-04T20:11:43.596Z,8.90
2018-07-04T20:14:23.131Z,10.43
2018-07-04T20:17:02.996Z,13.32
2018-07-04T20:19:42.496Z,6.75
2018-07-04T20:22:22.035Z,9.60
2018-07-04T20:25:01.876Z,9.23
2018-07-04T20:27:41.359Z,7.80
2018-07-04T20:30:20.835Z,7.33
2018-07-04T20:33:00.424Z,8.93
2018-07-04T20:35:40.281Z,7.67
2018-07-04T20:38:19.794Z,7.85
2018-07-04T20:40:59.808Z,7.10
2018-07-04T20:43:39.364Z,7.90
2018-07-04T20:46:19.352Z,8.63
2018-07-04T20:48:58.952Z,9.07
2018-07-04T20:51:38.606Z,7.90
2018-07-04T20:54:18.120Z,11.45
2018-07-04T20:56:57.588Z,8.37
2018-07-04T20:59:37.208Z,7.43
2018-07-04T21:02:16.771Z,7.30
2018-07-04T21:04:56.393Z,10.00
2018-07-04T21:07:36.162Z,8.50
2018-07-04T21:10:15.728Z,10.37
2018-07-04T21:12:55.716Z,10.37
2018-07-04T21:15:35.176Z,12.40
2018-07-04T21:18:14.812Z,8.80
2018-07-04T21:20:54.427Z,8.00
2018-07-04T21:23:33.959Z,9.97
2018-07-04T21:26:13.487Z,7.50
2018-07-04T21:28:53.234Z,9.23
2018-07-04T21:31:32.743Z,7.37
2018-07-04T21:34:12.430Z,11.23
2018-07-04T21:36:51.936Z,11.03
2018-07-04T21:39:31.359Z,9.20
2018-07-04T21:42:10.970Z,11.70
2018-07-04T21:44:50.582Z,8.87
2018-07-04T21:47:30.183Z,8.53
2018-07-04T21:50:09.876Z,9.03
2018-07-04T21:52:49.502Z,14.33
2018-07-04T21:55:29.026Z,9.50
2018-07-04T21:58:08.520Z,12.33
2018-07-04T22:00:48.039Z,8.68
2018-07-04T22:03:27.740Z,10.43
2018-07-04T22:06:07.188Z,11.37
2018-07-04T22:08:46.884Z,9.13
2018-07-04T22:11:26.452Z,14.23
2018-07-04T22:14:05.949Z,13.07
2018-07-04T22:16:45.879Z,8.97
2018-07-04T22:19:25.482Z,8.93
2018-07-04T22:22:05.091Z,13.33
2018-07-04T22:24:45.124Z,17.20
2018-07-04T22:27:24.667Z,16.20
2018-07-04T22:30:04.134Z,9.10
2018-07-04T22:32:43.779Z,12.47
2018-07-04T22:35:23.304Z,9.18
2018-07-04T22:38:02.847Z,9.65
2018-07-04T22:40:42.296Z,11.53
2018-07-04T22:43:21.688Z,9.10
2018-07-04T22:46:01.592Z,9.75
2018-07-04T22:48:40.989Z,9.60
2018-07-04T22:51:20.588Z,10.30
2018-07-04T22:54:00.099Z,10.43
2018-07-04T22:56:39.973Z,9.67
2018-07-04T22:59:19.673Z,10.23
2018-07-04T23:01:59.436Z,10.48
2018-07-04T23:04:38.918Z,10.35
2018-07-04T23:07:18.678Z,10.23
2018-07-04T23:09:58.088Z,8.93
2018-07-04T23:12:37.596Z,18.97
2018-07-04T23:15:17.049Z,9.07
2018-07-04T23:17:56.500Z,10.48
2018-07-04T23:20:36.001Z,14.77
2018-07-04T23:23:15.651Z,11.03
2018-07-04T23:25:55.343Z,10.80
2018-07-04T23:28:35.001Z,12.57
2018-07-04T23:31:14.651Z,9.67
2018-07-04T23:33:54.231Z,8.30
2018-07-04T23:36:33.959Z,9.77
2018-07-04T23:39:13.435Z,12.03
2018-07-04T23:41:53.255Z,9.00
2018-07-04T23:44:32.987Z,11.10
2018-07-04T23:47:12.698Z,10.77
2018-07-04T23:49:52.190Z,10.30
2018-07-04T23:52:31.846Z,12.25
2018-07-04T23:55:11.380Z,10.20
2018-07-04T23:57:50.889Z,17.10
